< < Back
Terminal Aerodrome Forecast


Current Version              Previous Versions:   1  2  3  4  5  6  7  8  9  

Terminal Aerodrome Forecast

549
FTUS44 KBMX 191700
TAFMGM
TAF
KMGM 191730Z 1918/2018 10008KT P6SM VCTS SCT050CB
     FM200100 07003KT P6SM FEW250
     FM201100 07007KT P6SM SCT025=



Latest METAR

374
SAUS80 KWBC 200600
MTRMGM
METAR KMGM 200553Z AUTO 08006KT 10SM CLR 22/18 A3004 RMK AO2 SLP169
60000 T02220183 10250 20217 403390194 58003


USA.gov is the U.S. government's official web portal to all federal, state and local government web resources and services.